Observation data for Memphis on 02/23/2019      Previous  Date  Next       Current Mesonet Observations  Soil Data  Daily Summary Page  Observations in Plain Language
KMES 230600Z 08007KT 06/06 A2977 RMK A01 T00620058  RH  100%=      5-min Rain = 0
KMES 230605Z 08006KT 06/06 A2976 RMK A01 T00620058  RH  100%=      5-min Rain = 0
KMES 230610Z 08006KT 06/06 A2976 RMK A01 T00620058  RH  100%=      5-min Rain = 0
KMES 230615Z 10006KT 06/06 A2976 RMK A01 T00620058  RH  100%=      5-min Rain = 0
KMES 230620Z 10007KT 06/06 A2976 RMK A01 T00620059  RH  100%=      5-min Rain = 0
KMES 230625Z 10006KT 06/06 A2975 RMK A01 T00620058  RH  100%=      5-min Rain = 0
KMES 230630Z 09006KT 06/06 A2974 RMK A01 T00620058  RH  100%=      5-min Rain = 0
KMES 230635Z 12007KT 06/06 A2976 RMK A01 T00620059  RH  100%=      5-min Rain = 0
KMES 230640Z 12007KT 06/06 A2976 RMK A01 T00620059  RH  100%=      5-min Rain = 0
KMES 230645Z 10007G12KT 06/06 A2975 RMK A01 T00620059  RH  100%=      5-min Rain = 0
KMES 230650Z 09008KT 06/06 A2974 RMK A01 T00620059  RH  100%=      5-min Rain = 0
KMES 230655Z 07010KT 06/06 A297 RMK A01 T00620058  RH  100%=      5-min Rain = 0
KMES 230700Z 08008G14KT 06/06 A297 RMK A01 T00620058  RH  100%=      5-min Rain = 0
KMES 230705Z 10004KT 06/06 A2973 RMK A01 T00620059  RH  100%=      5-min Rain = 0
KMES 230710Z 10004KT 06/06 A2973 RMK A01 T00620059  RH  100%=      5-min Rain = 0
KMES 230715Z 10005KT 06/06 A2972 RMK A01 T00620059  RH  100%=      5-min Rain = 0
KMES 230720Z 08006KT 06/06 A2972 RMK A01 T00620058  RH  100%=      5-min Rain = 0
KMES 230725Z 07004KT 06/06 A2972 RMK A01 T00620058  RH  100%=      5-min Rain = 0
KMES 230730Z 07004KT 06/06 A2971 RMK A01 T00620058  RH  100%=      5-min Rain = 0
KMES 230735Z 11006KT 06/06 A2972 RMK A01 T00620058  RH  100%=      5-min Rain = 0
KMES 230740Z 16005KT 06/06 A2974 RMK A01 T00620059  RH  100%=      5-min Rain = 0
KMES 230745Z 19005KT 06/06 A2976 RMK A01 T00620059  RH  100%=      5-min Rain = 0
KMES 230750Z 18003KT 06/06 A2976 RMK A01 T00630059  RH  100%=      5-min Rain = 0
KMES 230755Z 15005KT 06/06 A2976 RMK A01 T00630060  RH  100%=      5-min Rain = 0.01
KMES 230800Z 12006KT 06/06 A2975 RMK A01 T00630060  RH  100%=      5-min Rain = 0.01
KMES 230805Z 12006KT 06/06 A2974 RMK A01 T00630060  RH  100%=      5-min Rain = 0
KMES 230810Z 12007KT 06/06 A2974 RMK A01 T00630060  RH  100%=      5-min Rain = 0.01
KMES 230815Z 11006KT 06/06 A2974 RMK A01 T00630060  RH  100%=      5-min Rain = 0
KMES 230820Z 10006KT 06/06 A2973 RMK A01 T00630060  RH  100%=      5-min Rain = 0
KMES 230825Z 09009KT 06/06 A2972 RMK A01 T00630060  RH  100%=      5-min Rain = 0
KMES 230830Z 09009KT 06/06 A2971 RMK A01 T00630059  RH  100%=      5-min Rain = 0
KMES 230835Z 09008G13KT 06/06 A297 RMK A01 T00620059  RH  100%=      5-min Rain = 0
KMES 230840Z 09008KT 06/06 A297 RMK A01 T00620059  RH  100%=      5-min Rain = 0
KMES 230845Z 10009KT 06/06 A297 RMK A01 T00620059  RH  100%=      5-min Rain = 0
KMES 230850Z 11010KT 06/06 A297 RMK A01 T00620059  RH  100%=      5-min Rain = 0
KMES 230855Z 10007KT 06/06 A2969 RMK A01 T00620058  RH  100%=      5-min Rain = 0
KMES 230900Z 10008G13KT 06/06 A2969 RMK A01 T00620058  RH  100%=      5-min Rain = 0
KMES 230905Z 10009KT 06/06 A2968 RMK A01 T00620058  RH  100%=      5-min Rain = 0
KMES 230910Z 11008KT 06/06 A2968 RMK A01 T00620058  RH  100%=      5-min Rain = 0
KMES 230915Z 10008KT 06/06 A2968 RMK A01 T00620058  RH  100%=      5-min Rain = 0
KMES 230920Z 11008KT 06/06 A2968 RMK A01 T00620058  RH  100%=      5-min Rain = 0
KMES 230925Z 11008KT 06/06 A2968 RMK A01 T00620059  RH  100%=      5-min Rain = 0
KMES 230930Z 12004KT 06/06 A2968 RMK A01 T00620059  RH  100%=      5-min Rain = 0
KMES 230935Z 23006KT 06/06 A2968 RMK A01 T00620059  RH  100%=      5-min Rain = 0
KMES 230940Z 17003KT 06/06 A2967 RMK A01 T00620059  RH  100%=      5-min Rain = 0
KMES 230945Z 19004KT 06/06 A2968 RMK A01 T00620059  RH  100%=      5-min Rain = 0
KMES 230950Z 20005KT 06/06 A2968 RMK A01 T00630059  RH  100%=      5-min Rain = 0.01
KMES 230955Z 14004KT 06/06 A2968 RMK A01 T00630059  RH  100%=      5-min Rain = 0
KMES 231000Z 18004KT 06/06 A2968 RMK A01 T00630059  RH  100%=      5-min Rain = 0
KMES 231005Z 18004KT 06/06 A2967 RMK A01 T00630059  RH  100%=      5-min Rain = 0.01
KMES 231010Z 17004KT 06/06 A2967 RMK A01 T00630059  RH  100%=      5-min Rain = 0
KMES 231015Z 18004KT 06/06 A2966 RMK A01 T00630059  RH  100%=      5-min Rain = 0
KMES 231020Z 16003KT 06/06 A2966 RMK A01 T00630059  RH  100%=      5-min Rain = 0
KMES 231025Z 17003KT 06/06 A2966 RMK A01 T00630059  RH  100%=      5-min Rain = 0
KMES 231030Z 17003KT 06/06 A2966 RMK A01 T00630059  RH  100%=      5-min Rain = 0
KMES 231035Z 17004KT 06/06 A2966 RMK A01 T00630060  RH  100%=      5-min Rain = 0
KMES 231040Z 15004KT 06/06 A2965 RMK A01 T00630060  RH  100%=      5-min Rain = 0
KMES 231045Z 15005KT 06/06 A2964 RMK A01 T00630060  RH  100%=      5-min Rain = 0
KMES 231050Z 14004KT 06/06 A2964 RMK A01 T00630060  RH  100%=      5-min Rain = 0
KMES 231055Z 12005KT 06/06 A2962 RMK A01 T00630060  RH  100%=      5-min Rain = 0
KMES 231100Z 13004KT 06/06 A2962 RMK A01 T00630060  RH  100%=      5-min Rain = 0
KMES 231105Z 16004KT 06/06 A2962 RMK A01 T00640061  RH  100%=      5-min Rain = 0
KMES 231110Z 18004KT 06/06 A2962 RMK A01 T00640061  RH  100%=      5-min Rain = 0
KMES 231115Z 18005KT 07/06 A2963 RMK A01 T00650061  RH  100%=      5-min Rain = 0
KMES 231120Z 19005KT 07/06 A2963 RMK A01 T00650061  RH  100%=      5-min Rain = 0
KMES 231125Z 20007KT 07/06 A2963 RMK A01 T00660062  RH  100%=      5-min Rain = 0
KMES 231130Z 20006G12KT 07/06 A2962 RMK A01 T00670064  RH  100%=      5-min Rain = 0
KMES 231135Z 19007KT 07/07 A2961 RMK A01 T00680065  RH  100%=      5-min Rain = 0
KMES 231140Z 19008KT 07/07 A2961 RMK A01 T00690066  RH  100%=      5-min Rain = 0
KMES 231145Z 19008KT 07/07 A2962 RMK A01 T00690065  RH  100%=      5-min Rain = 0
KMES 231150Z 20008KT 07/07 A2962 RMK A01 T00690065  RH  100%=      5-min Rain = 0
KMES 231155Z 20009G14KT 07/07 A2962 RMK A01 T00690065  RH  100%=      5-min Rain = 0
KMES 231200Z 20011G17KT 07/07 A2962 RMK A01 T00700066  RH  100%=      5-min Rain = 0
KMES 231205Z 22009KT 07/07 A2962 RMK A01 T00710067  RH  100%=      5-min Rain = 0
KMES 231210Z 23015G20KT 07/07 A2962 RMK A01 T00690065  RH  100%=      5-min Rain = 0
KMES 231215Z 22016G26KT 06/06 A2962 RMK A01 T00620059  RH  100%=      5-min Rain = 0
KMES 231220Z 22013G18KT 06/05 A2962 RMK A01 T00570054  RH  100%=      5-min Rain = 0
KMES 231225Z 22011G18KT 05/05 A2962 RMK A01 T00530050  RH  100%=      5-min Rain = 0
KMES 231230Z 22012G17KT 05/05 A2962 RMK A01 T00500047  RH  100%=      5-min Rain = 0
KMES 231235Z 22011G16KT 05/04 A2962 RMK A01 T00470044  RH  100%=      5-min Rain = 0
KMES 231240Z 22010KT 05/04 A2961 RMK A01 T00460042  RH  099%=      5-min Rain = 0
KMES 231245Z 23012G19KT 05/04 A2962 RMK A01 T00470040  RH  098%=      5-min Rain = 0
KMES 231250Z 23014KT 05/03 A2962 RMK A01 T00480034  RH  093%=      5-min Rain = 0
KMES 231255Z 23014G20KT 05/03 A2962 RMK A01 T00490028  RH  088%=      5-min Rain = 0
KMES 231300Z 23012KT 05/02 A2962 RMK A01 T00490023  RH  085%=      5-min Rain = 0
KMES 231305Z 23014G19KT 05/02 A2962 RMK A01 T00490022  RH  084%=      5-min Rain = 0
KMES 231310Z 23014G19KT 05/02 A2963 RMK A01 T00500022  RH  083%=      5-min Rain = 0
KMES 231315Z 23013KT 05/02 A2963 RMK A01 T00500022  RH  084%=      5-min Rain = 0
KMES 231320Z 23013G19KT 05/02 A2963 RMK A01 T00480021  RH  084%=      5-min Rain = 0
KMES 231325Z 23015KT 05/02 A2963 RMK A01 T00480020  RH  083%=      5-min Rain = 0
KMES 231330Z 23015G20KT 05/02 A2963 RMK A01 T00480017  RH  082%=      5-min Rain = 0
KMES 231335Z 23014G20KT 05/02 A2964 RMK A01 T00480016  RH  081%=      5-min Rain = 0
KMES 231340Z 23013G20KT 05/02 A2964 RMK A01 T00480016  RH  081%=      5-min Rain = 0
KMES 231345Z 23015G21KT 05/02 A2964 RMK A01 T00480015  RH  081%=      5-min Rain = 0
KMES 231350Z 23014G20KT 05/02 A2964 RMK A01 T00480015  RH  080%=      5-min Rain = 0
KMES 231355Z 23018G27KT 05/01 A2963 RMK A01 T00490014  RH  079%=      5-min Rain = 0
KMES 231400Z 23018G23KT 05/01 A2963 RMK A01 T00510011  RH  076%=      5-min Rain = 0
KMES 231405Z 24017G23KT 05/01 A2964 RMK A01 T00530008  RH  074%=      5-min Rain = 0
KMES 231410Z 23016G26KT 05/01 A2964 RMK A01 T00540005  RH  072%=      5-min Rain = 0
KMES 231415Z 23019G29KT 06/M00 A2963 RMK A01 T00561001  RH  068%=      5-min Rain = 0
KMES 231420Z 23019G27KT 06/M00 A2964 RMK A01 T00581003  RH  066%=      5-min Rain = 0
KMES 231425Z 23018G24KT 06/M00 A2964 RMK A01 T00581003  RH  066%=      5-min Rain = 0
KMES 231430Z 23018G25KT 06/M00 A2963 RMK A01 T00591004  RH  065%=      5-min Rain = 0
KMES 231435Z 23020G27KT 06/M01 A2963 RMK A01 T00611005  RH  063%=      5-min Rain = 0
KMES 231440Z 23018G23KT 06/M01 A2964 RMK A01 T00621006  RH  062%=      5-min Rain = 0
KMES 231445Z 23020G28KT 06/M01 A2964 RMK A01 T00641005  RH  062%=      5-min Rain = 0
KMES 231450Z 23021G33KT 07/M01 A2963 RMK A01 T00661007  RH  060%=      5-min Rain = 0
KMES 231455Z 24020G27KT 07/M01 A2963 RMK A01 T00681007  RH  060%=      5-min Rain = 0
KMES 231500Z 23019G24KT 07/M00 A2963 RMK A01 T00691004  RH  060%=      5-min Rain = 0
KMES 231505Z 23022G30KT 07/M01 A2963 RMK A01 T00711006  RH  059%=      5-min Rain = 0
KMES 231510Z 23020G30KT 07/M01 A2963 RMK A01 T00731005  RH  058%=      5-min Rain = 0
KMES 231515Z 23022G29KT 07/M01 A2963 RMK A01 T00741006  RH  057%=      5-min Rain = 0
KMES 231520Z 23020G27KT 08/M00 A2963 RMK A01 T00751004  RH  058%=      5-min Rain = 0
KMES 231525Z 23023G34KT 08/M01 A2962 RMK A01 T00761005  RH  057%=      5-min Rain = 0
KMES 231530Z 24028G38KT 08/M01 A2961 RMK A01 T00761008  RH  056%=      5-min Rain = 0
KMES 231535Z 24023G34KT 08/M01 A2961 RMK A01 T00771007  RH  056%=      5-min Rain = 0
KMES 231540Z 23027G35KT 08/M01 A2961 RMK A01 T00781008  RH  055%=      5-min Rain = 0
KMES 231545Z 23027G38KT 08/M01 A2961 RMK A01 T00801008  RH  054%=      5-min Rain = 0
KMES 231550Z 23028G38KT 08/M01 A2961 RMK A01 T00811010  RH  053%=      5-min Rain = 0
KMES 231555Z 24027G39KT 08/M01 A296 RMK A01 T00821011  RH  052%=      5-min Rain = 0
KMES 231600Z 24027G37KT 08/M01 A296 RMK A01 T00841012  RH  051%=      5-min Rain = 0
KMES 231605Z 23028G39KT 09/M01 A296 RMK A01 T00861013  RH  050%=      5-min Rain = 0
KMES 231610Z 24026G35KT 09/M01 A296 RMK A01 T00881013  RH  049%=      5-min Rain = 0
KMES 231615Z 24029G42KT 09/M02 A296 RMK A01 T00891016  RH  048%=      5-min Rain = 0
KMES 231620Z 24023G33KT 09/M01 A2961 RMK A01 T00921013  RH  048%=      5-min Rain = 0
KMES 231625Z 24025G38KT 09/M02 A2961 RMK A01 T00941015  RH  047%=      5-min Rain = 0
KMES 231630Z 24024G37KT 10/M01 A2961 RMK A01 T00971012  RH  047%=      5-min Rain = 0
KMES 231635Z 24028G41KT 10/M02 A2961 RMK A01 T00971016  RH  046%=      5-min Rain = 0
KMES 231640Z 25023G34KT 10/M01 A2961 RMK A01 T01001012  RH  046%=      5-min Rain = 0
KMES 231645Z 24027G37KT 10/M02 A2961 RMK A01 T00991016  RH  045%=      5-min Rain = 0
KMES 231650Z 24022G35KT 10/M01 A2962 RMK A01 T01001014  RH  045%=      5-min Rain = 0
KMES 231655Z 25023G37KT 10/M01 A2962 RMK A01 T01011014  RH  045%=      5-min Rain = 0
KMES 231700Z 26023G31KT 10/M01 A2962 RMK A01 T01021013  RH  045%=      5-min Rain = 0
KMES 231705Z 24025G36KT 10/M01 A2962 RMK A01 T01011011  RH  046%=      5-min Rain = 0
KMES 231710Z 25023G36KT 10/M01 A2963 RMK A01 T01021008  RH  047%=      5-min Rain = 0
KMES 231715Z 26021G31KT 10/M01 A2963 RMK A01 T01031005  RH  048%=      5-min Rain = 0
KMES 231720Z 25026G35KT 10/M00 A2963 RMK A01 T01021002  RH  049%=      5-min Rain = 0
KMES 231725Z 26024G36KT 10/00 A2963 RMK A01 T01020003  RH  051%=      5-min Rain = 0
KMES 231730Z 27022G31KT 10/01 A2964 RMK A01 T01020005  RH  052%=      5-min Rain = 0
KMES 231735Z 27022G31KT 10/01 A2964 RMK A01 T01000006  RH  053%=      5-min Rain = 0
KMES 231740Z 27021G34KT 10/00 A2965 RMK A01 T00980004  RH  053%=      5-min Rain = 0
KMES 231745Z 26022G31KT 09/00 A2965 RMK A01 T00940002  RH  053%=      5-min Rain = 0
KMES 231750Z 26019G28KT 10/01 A2965 RMK A01 T00970006  RH  054%=      5-min Rain = 0
KMES 231755Z 26021G33KT 10/00 A2966 RMK A01 T01010004  RH  052%=      5-min Rain = 0
KMES 231800Z 26021G36KT 10/00 A2966 RMK A01 T01000004  RH  052%=      5-min Rain = 0
KMES 231805Z 26022G31KT 10/00 A2966 RMK A01 T01010001  RH  050%=      5-min Rain = 0
KMES 231810Z 26020G28KT 10/00 A2966 RMK A01 T01040003  RH  050%=      5-min Rain = 0
KMES 231815Z 26017G27KT 11/01 A2966 RMK A01 T01080005  RH  050%=      5-min Rain = 0
KMES 231820Z 27021G30KT 10/00 A2966 RMK A01 T01040004  RH  050%=      5-min Rain = 0
KMES 231825Z 27018G27KT 11/01 A2967 RMK A01 T01050007  RH  051%=      5-min Rain = 0
KMES 231830Z 27020G29KT 10/01 A2967 RMK A01 T01030007  RH  052%=      5-min Rain = 0
KMES 231835Z 27019G27KT 11/01 A2967 RMK A01 T01080010  RH  052%=      5-min Rain = 0
KMES 231840Z 27017G30KT 11/01 A2968 RMK A01 T01090011  RH  052%=      5-min Rain = 0
KMES 231845Z 27020G27KT 10/01 A2968 RMK A01 T01000013  RH  056%=      5-min Rain = 0
KMES 231850Z 26017G27KT 10/02 A2968 RMK A01 T00960018  RH  059%=      5-min Rain = 0
KMES 231855Z 28016G25KT 10/02 A2969 RMK A01 T00970020  RH  060%=      5-min Rain = 0
KMES 231900Z 28015G23KT 10/02 A2969 RMK A01 T00960021  RH  061%=      5-min Rain = 0
KMES 231905Z 30023G34KT 09/02 A297 RMK A01 T00930022  RH  062%=      5-min Rain = 0
KMES 231910Z 31022G33KT 08/02 A2971 RMK A01 T00840017  RH  064%=      5-min Rain = 0
KMES 231915Z 30024G38KT 08/01 A2972 RMK A01 T00810012  RH  063%=      5-min Rain = 0
KMES 231920Z 30023G31KT 08/01 A2973 RMK A01 T00760007  RH  062%=      5-min Rain = 0
KMES 231925Z 32023G33KT 08/01 A2974 RMK A01 T00750005  RH  062%=      5-min Rain = 0
KMES 231930Z 32021G28KT 08/00 A2975 RMK A01 T00750004  RH  062%=      5-min Rain = 0
KMES 231935Z 32024G32KT 08/01 A2976 RMK A01 T00750005  RH  062%=      5-min Rain = 0
KMES 231940Z 31019G28KT 08/01 A2976 RMK A01 T00760006  RH  062%=      5-min Rain = 0
KMES 231945Z 30023G31KT 08/00 A2977 RMK A01 T00760002  RH  060%=      5-min Rain = 0
KMES 231950Z 31023G35KT 08/M00 A2977 RMK A01 T00751001  RH  059%=      5-min Rain = 0
KMES 231955Z 31022G35KT 07/M00 A2978 RMK A01 T00731001  RH  060%=      5-min Rain = 0
KMES 232000Z 31021G31KT 07/M00 A2979 RMK A01 T00691002  RH  061%=      5-min Rain = 0
KMES 232005Z 30020G34KT 07/00 A298 RMK A01 T006900-0  RH  062%=      5-min Rain = 0
KMES 232010Z 31024G34KT 07/M00 A298 RMK A01 T00661003  RH  062%=      5-min Rain = 0
KMES 232015Z 31022G30KT 06/M00 A2981 RMK A01 T00641003  RH  063%=      5-min Rain = 0
KMES 232020Z 30022G29KT 07/M00 A2982 RMK A01 T00661004  RH  062%=      5-min Rain = 0
KMES 232025Z 31019G32KT 07/M01 A2983 RMK A01 T00671005  RH  061%=      5-min Rain = 0
KMES 232030Z 31021G29KT 07/M01 A2983 RMK A01 T00651007  RH  061%=      5-min Rain = 0
KMES 232035Z 32023G33KT 07/M01 A2983 RMK A01 T00651007  RH  061%=      5-min Rain = 0
KMES 232040Z 32023G30KT 07/M01 A2984 RMK A01 T00651008  RH  060%=      5-min Rain = 0
KMES 232045Z 31021G32KT 07/M01 A2985 RMK A01 T00651008  RH  060%=      5-min Rain = 0
KMES 232050Z 31021G30KT 07/M01 A2985 RMK A01 T00651009  RH  060%=      5-min Rain = 0
KMES 232055Z 31022G29KT 07/M01 A2985 RMK A01 T00671011  RH  058%=      5-min Rain = 0
KMES 232100Z 30022G33KT 07/M01 A2986 RMK A01 T00671012  RH  057%=      5-min Rain = 0
KMES 232105Z 31022G30KT 07/M01 A2987 RMK A01 T00671013  RH  057%=      5-min Rain = 0
KMES 232110Z 30016G27KT 07/M01 A2987 RMK A01 T00701010  RH  057%=      5-min Rain = 0
KMES 232115Z 31017G27KT 08/M01 A2988 RMK A01 T00751009  RH  056%=      5-min Rain = 0
KMES 232120Z 31018G29KT 08/M01 A2988 RMK A01 T00751010  RH  055%=      5-min Rain = 0
KMES 232125Z 30015G27KT 08/M01 A2988 RMK A01 T00791008  RH  055%=      5-min Rain = 0
KMES 232130Z 30019G25KT 08/M01 A2989 RMK A01 T00761010  RH  055%=      5-min Rain = 0
KMES 232135Z 30016G23KT 07/M01 A299 RMK A01 T00731009  RH  056%=      5-min Rain = 0
KMES 232140Z 30018G29KT 07/M01 A299 RMK A01 T00741011  RH  056%=      5-min Rain = 0
KMES 232145Z 30020G27KT 07/M01 A299 RMK A01 T00731011  RH  056%=      5-min Rain = 0
KMES 232150Z 30020G29KT 08/M01 A2991 RMK A01 T00751011  RH  055%=      5-min Rain = 0
KMES 232155Z 31020G30KT 08/M01 A2991 RMK A01 T00761012  RH  054%=      5-min Rain = 0
KMES 232200Z 31020G29KT 08/M01 A2991 RMK A01 T00781012  RH  054%=      5-min Rain = 0
KMES 232205Z 31018G27KT 08/M01 A2991 RMK A01 T00791011  RH  053%=      5-min Rain = 0
KMES 232210Z 31022G33KT 08/M01 A2992 RMK A01 T00801012  RH  053%=      5-min Rain = 0
KMES 232215Z 32021G28KT 08/M01 A2992 RMK A01 T00801013  RH  052%=      5-min Rain = 0
KMES 232220Z 31023G35KT 08/M01 A2993 RMK A01 T00791014  RH  052%=      5-min Rain = 0
KMES 232225Z 31020G29KT 08/M02 A2993 RMK A01 T00801015  RH  051%=      5-min Rain = 0
KMES 232230Z 31020G31KT 08/M01 A2994 RMK A01 T00821014  RH  051%=      5-min Rain = 0
KMES 232235Z 30019G28KT 08/M01 A2994 RMK A01 T00831012  RH  052%=      5-min Rain = 0
KMES 232240Z 30020G29KT 08/M01 A2995 RMK A01 T00811013  RH  052%=      5-min Rain = 0
KMES 232245Z 31021G29KT 08/M01 A2995 RMK A01 T00811014  RH  051%=      5-min Rain = 0
KMES 232250Z 31018G27KT 08/M02 A2996 RMK A01 T00801015  RH  051%=      5-min Rain = 0
KMES 232255Z 32021G32KT 08/M02 A2996 RMK A01 T00801017  RH  051%=      5-min Rain = 0
KMES 232300Z 32019G31KT 08/M02 A2997 RMK A01 T00801018  RH  050%=      5-min Rain = 0
KMES 232305Z 32021G30KT 08/M02 A2998 RMK A01 T00791019  RH  050%=      5-min Rain = 0
KMES 232310Z 32021G27KT 08/M02 A2998 RMK A01 T00781020  RH  050%=      5-min Rain = 0
KMES 232315Z 32022G30KT 08/M02 A2999 RMK A01 T00781020  RH  050%=      5-min Rain = 0
KMES 232320Z 31019G26KT 08/M02 A2999 RMK A01 T00771021  RH  050%=      5-min Rain = 0
KMES 232325Z 31018G26KT 08/M02 A30 RMK A01 T00761021  RH  051%=      5-min Rain = 0
KMES 232330Z 32020G25KT 08/M02 A3001 RMK A01 T00771021  RH  051%=      5-min Rain = 0
KMES 232335Z 32019G27KT 08/M02 A3001 RMK A01 T00781021  RH  050%=      5-min Rain = 0
KMES 232340Z 31015G21KT 08/M02 A3002 RMK A01 T00781020  RH  050%=      5-min Rain = 0
KMES 232345Z 31017G27KT 08/M02 A3002 RMK A01 T00781021  RH  050%=      5-min Rain = 0
KMES 232350Z 31018G24KT 08/M02 A3003 RMK A01 T00761023  RH  050%=      5-min Rain = 0
KMES 232355Z 32020G26KT 08/M03 A3003 RMK A01 T00751025  RH  050%=      5-min Rain = 0.01
KMES 240000Z 32015G22KT 08/M02 A3003 RMK A01 T00751024  RH  050%=      5-min Rain = 0
KMES 240005Z 32016G22KT 07/M02 A3003 RMK A01 T00741023  RH  050%=      5-min Rain = 0
KMES 240010Z 32014G19KT 07/M02 A3002 RMK A01 T00731023  RH  051%=      5-min Rain = 0
KMES 240015Z 32011KT 07/M02 A3002 RMK A01 T00711022  RH  052%=      5-min Rain = 0
KMES 240020Z 32011KT 07/M02 A3002 RMK A01 T00691021  RH  053%=      5-min Rain = 0
KMES 240025Z 32012G18KT 07/M02 A3002 RMK A01 T00681022  RH  053%=      5-min Rain = 0
KMES 240030Z 32013G18KT 07/M02 A3002 RMK A01 T00681023  RH  053%=      5-min Rain = 0
KMES 240035Z 32011KT 07/M02 A3002 RMK A01 T00671022  RH  053%=      5-min Rain = 0
KMES 240040Z 31010G16KT 07/M02 A3003 RMK A01 T00651022  RH  054%=      5-min Rain = 0
KMES 240045Z 31009KT 07/M02 A3004 RMK A01 T00651022  RH  054%=      5-min Rain = 0
KMES 240050Z 30007G12KT 06/M02 A3004 RMK A01 T00631022  RH  055%=      5-min Rain = 0
KMES 240055Z 30007KT 06/M02 A3004 RMK A01 T00621023  RH  055%=      5-min Rain = 0
KMES 240100Z 30006KT 06/M02 A3004 RMK A01 T00601023  RH  055%=      5-min Rain = 0
KMES 240105Z 31006KT 06/M02 A3004 RMK A01 T00581024  RH  056%=      5-min Rain = 0
KMES 240110Z 32005KT 06/M03 A3004 RMK A01 T00561025  RH  056%=      5-min Rain = 0
KMES 240115Z 31004KT 05/M03 A3004 RMK A01 T00521025  RH  058%=      5-min Rain = 0
KMES 240120Z 30004KT 05/M03 A3005 RMK A01 T00511026  RH  058%=      5-min Rain = 0
KMES 240125Z 29005KT 05/M03 A3006 RMK A01 T00491026  RH  058%=      5-min Rain = 0
KMES 240130Z 29005KT 05/M03 A3006 RMK A01 T00491027  RH  058%=      5-min Rain = 0
KMES 240135Z 30004KT 05/M03 A3006 RMK A01 T00461028  RH  059%=      5-min Rain = 0
KMES 240140Z 31004KT 04/M03 A3007 RMK A01 T00441030  RH  059%=      5-min Rain = 0
KMES 240145Z 30004KT 04/M03 A3007 RMK A01 T00421031  RH  060%=      5-min Rain = 0
KMES 240150Z 30004KT 04/M03 A3007 RMK A01 T00401031  RH  060%=      5-min Rain = 0
KMES 240155Z 30005KT 04/M03 A3008 RMK A01 T00381033  RH  060%=      5-min Rain = 0
KMES 240200Z 30005KT 04/M04 A3008 RMK A01 T00381035  RH  059%=      5-min Rain = 0
KMES 240205Z 31009KT 04/M04 A3009 RMK A01 T00411041  RH  055%=      5-min Rain = 0
KMES 240210Z 32008KT 04/M05 A3009 RMK A01 T00431045  RH  053%=      5-min Rain = 0
KMES 240215Z 32009KT 04/M05 A3009 RMK A01 T00421048  RH  052%=      5-min Rain = 0
KMES 240220Z 32008KT 04/M05 A301 RMK A01 T00391048  RH  053%=      5-min Rain = 0
KMES 240225Z 32008KT 03/M05 A301 RMK A01 T00341049  RH  055%=      5-min Rain = 0
KMES 240230Z 32007KT 03/M05 A301 RMK A01 T00281051  RH  056%=      5-min Rain = 0
KMES 240235Z 31006KT 03/M05 A301 RMK A01 T00281052  RH  056%=      5-min Rain = 0
KMES 240240Z 31006KT 03/M05 A301 RMK A01 T00271052  RH  056%=      5-min Rain = 0
KMES 240245Z 32006KT 03/M05 A301 RMK A01 T00261052  RH  056%=      5-min Rain = 0
KMES 240250Z 32007KT 03/M05 A301 RMK A01 T00281053  RH  055%=      5-min Rain = 0
KMES 240255Z 32007KT 03/M05 A3011 RMK A01 T00291054  RH  054%=      5-min Rain = 0
KMES 240300Z 32006KT 03/M06 A3011 RMK A01 T00291055  RH  054%=      5-min Rain = 0
KMES 240305Z 32006KT 03/M05 A3011 RMK A01 T00251054  RH  056%=      5-min Rain = 0
KMES 240310Z 32005KT 02/M05 A3012 RMK A01 T00191054  RH  058%=      5-min Rain = 0
KMES 240315Z 31004KT 02/M05 A3012 RMK A01 T00181054  RH  059%=      5-min Rain = 0
KMES 240320Z 30002KT 02/M05 A3013 RMK A01 T00191054  RH  058%=      5-min Rain = 0
KMES 240325Z 28002KT 02/M06 A3013 RMK A01 T00201055  RH  058%=      5-min Rain = 0
KMES 240330Z 26003KT 02/M06 A3014 RMK A01 T00211057  RH  056%=      5-min Rain = 0
KMES 240335Z 25005KT 02/M06 A3015 RMK A01 T00191057  RH  057%=      5-min Rain = 0
KMES 240340Z 24006KT 02/M06 A3015 RMK A01 T00191058  RH  057%=      5-min Rain = 0
KMES 240345Z 24006KT 02/M06 A3016 RMK A01 T00161056  RH  059%=      5-min Rain = 0
KMES 240350Z 28005KT 02/M06 A3015 RMK A01 T00181058  RH  057%=      5-min Rain = 0
KMES 240355Z 30006KT 02/M06 A3015 RMK A01 T00201060  RH  056%=      5-min Rain = 0
KMES 240400Z 30007KT 02/M06 A3015 RMK A01 T00211062  RH  054%=      5-min Rain = 0
KMES 240405Z 30008KT 02/M06 A3016 RMK A01 T00201063  RH  054%=      5-min Rain = 0
KMES 240410Z 30007KT 02/M06 A3016 RMK A01 T00191064  RH  054%=      5-min Rain = 0
KMES 240415Z 31008KT 02/M07 A3015 RMK A01 T00181065  RH  055%=      5-min Rain = 0
KMES 240420Z 31008KT 01/M06 A3016 RMK A01 T00141064  RH  056%=      5-min Rain = 0
KMES 240425Z 31008KT 01/M07 A3016 RMK A01 T00141066  RH  055%=      5-min Rain = 0
KMES 240430Z 32007KT 01/M07 A3016 RMK A01 T00131067  RH  055%=      5-min Rain = 0
KMES 240435Z 32007KT 01/M07 A3016 RMK A01 T00101067  RH  056%=      5-min Rain = 0
KMES 240440Z 32007KT 01/M07 A3017 RMK A01 T00091069  RH  056%=      5-min Rain = 0
KMES 240445Z 31005KT 01/M07 A3017 RMK A01 T00091070  RH  055%=      5-min Rain = 0
KMES 240450Z 28003KT 01/M07 A3017 RMK A01 T00081071  RH  055%=      5-min Rain = 0
KMES 240455Z 27004KT 01/M07 A3018 RMK A01 T00091073  RH  054%=      5-min Rain = 0
KMES 240500Z 29004KT 01/M07 A3018 RMK A01 T00091074  RH  054%=      5-min Rain = 0
KMES 240505Z 30004KT 01/M08 A3019 RMK A01 T00131078  RH  051%=      5-min Rain = 0
KMES 240510Z 29005KT 02/M08 A3019 RMK A01 T00151079  RH  050%=      5-min Rain = 0
KMES 240515Z 29004KT 02/M08 A3019 RMK A01 T00151081  RH  049%=      5-min Rain = 0
KMES 240520Z 31006KT 01/M08 A3019 RMK A01 T00131080  RH  050%=      5-min Rain = 0
KMES 240525Z 31005KT 01/M08 A3019 RMK A01 T00131081  RH  049%=      5-min Rain = 0
KMES 240530Z 31004KT 01/M08 A302 RMK A01 T00121081  RH  050%=      5-min Rain = 0
KMES 240535Z 31004KT 01/M08 A302 RMK A01 T00131082  RH  049%=      5-min Rain = 0
KMES 240540Z 30003KT 01/M08 A302 RMK A01 T00131083  RH  049%=      5-min Rain = 0
KMES 240545Z 26003KT 01/M08 A3021 RMK A01 T00091082  RH  050%=      5-min Rain = 0
KMES 240550Z 23003KT 00/M08 A3021 RMK A01 T00031078  RH  055%=      5-min Rain = 0
KMES 240555Z 25002KT M01/M07 A3022 RMK A01 T10051073  RH  060%=      5-min Rain = 0

Page generated in 0.0136 seconds.